createdAt,value
2023-03-26T00:00:50.749Z,0.97
2023-03-26T00:03:34.676Z,0.30
2023-03-26T00:06:15.510Z,0.17
2023-03-26T00:08:57.682Z,0.50
2023-03-26T00:11:29.042Z,0.10
2023-03-26T00:13:58.061Z,0.23
2023-03-26T00:16:40.300Z,0.00
2023-03-26T00:19:13.308Z,0.17
2023-03-26T00:21:41.666Z,0.20
2023-03-26T00:24:46.656Z,0.40
2023-03-26T00:27:43.147Z,0.30
2023-03-26T00:31:01.249Z,0.10
2023-03-26T00:33:51.440Z,0.40
2023-03-26T00:39:50.889Z,0.20
2023-03-26T00:42:18.515Z,0.10
2023-03-26T00:48:48.560Z,0.30
2023-03-26T00:51:22.233Z,0.00
2023-03-26T00:53:58.564Z,0.00
2023-03-26T00:56:43.372Z,0.40
2023-03-26T00:59:11.237Z,0.30
2023-03-26T01:01:38.491Z,0.20
2023-03-26T01:04:31.889Z,0.07
2023-03-26T01:07:09.135Z,0.30
2023-03-26T01:09:50.510Z,0.20
2023-03-26T01:12:28.727Z,0.10
2023-03-26T01:15:00.920Z,0.20
2023-03-26T01:17:34.180Z,0.53
2023-03-26T01:20:19.474Z,0.47
2023-03-26T01:22:53.392Z,0.20
2023-03-26T01:25:25.554Z,0.30
2023-03-26T01:27:55.994Z,0.37
2023-03-26T01:30:37.233Z,0.30
2023-03-26T01:33:30.223Z,0.20
2023-03-26T01:36:04.709Z,0.07
2023-03-26T01:39:08.368Z,0.10
2023-03-26T01:42:11.157Z,0.07
2023-03-26T01:44:57.137Z,0.33
2023-03-26T01:47:24.973Z,0.23
2023-03-26T01:49:52.362Z,0.33
2023-03-26T01:52:26.329Z,0.47
2023-03-26T01:54:56.939Z,0.10
2023-03-26T01:57:52.344Z,0.00
2023-03-26T02:00:51.368Z,0.00
2023-03-26T02:03:36.851Z,0.20
2023-03-26T02:06:18.979Z,0.30
2023-03-26T02:09:01.093Z,1.93
2023-03-26T02:11:35.387Z,0.30
2023-03-26T02:14:06.174Z,0.00
2023-03-26T02:16:33.513Z,0.27
2023-03-26T02:19:01.062Z,0.30
2023-03-26T02:21:28.923Z,0.13
2023-03-26T02:24:04.272Z,0.30
2023-03-26T02:26:34.581Z,0.20
2023-03-26T02:29:02.325Z,0.23
2023-03-26T02:31:30.349Z,0.10
2023-03-26T02:33:57.855Z,0.37
2023-03-26T02:36:28.017Z,0.10
2023-03-26T02:38:57.992Z,0.20
2023-03-26T02:41:25.583Z,0.13
2023-03-26T02:43:52.807Z,0.30
2023-03-26T02:46:20.211Z,0.00
2023-03-26T02:48:47.990Z,0.10
2023-03-26T02:51:18.353Z,0.60
2023-03-26T02:53:46.194Z,0.20
2023-03-26T02:56:13.850Z,0.50
2023-03-26T02:58:41.143Z,0.10
2023-03-26T03:01:08.464Z,0.20
2023-03-26T03:03:36.497Z,0.30
2023-03-26T03:06:04.057Z,0.40
2023-03-26T03:08:31.308Z,0.30
2023-03-26T03:11:04.230Z,0.40
2023-03-26T03:13:31.421Z,0.70
2023-03-26T03:15:58.736Z,0.17
2023-03-26T03:18:25.923Z,0.20
2023-03-26T03:20:55.365Z,0.13
2023-03-26T03:23:31.643Z,0.10
2023-03-26T03:26:00.663Z,0.20
2023-03-26T03:28:30.688Z,0.10
2023-03-26T03:30:58.028Z,0.10
2023-03-26T03:33:25.431Z,0.10
2023-03-26T03:35:52.989Z,0.07
2023-03-26T03:38:20.723Z,0.10
2023-03-26T03:40:48.401Z,0.13
2023-03-26T03:43:15.771Z,0.00
2023-03-26T03:45:43.174Z,0.30
2023-03-26T03:48:10.754Z,0.37
2023-03-26T03:50:37.981Z,0.43
2023-03-26T03:53:05.891Z,0.17
2023-03-26T03:55:33.181Z,0.10
2023-03-26T03:58:00.615Z,0.17
2023-03-26T04:00:28.153Z,0.27
2023-03-26T04:02:56.429Z,0.13
2023-03-26T04:05:23.717Z,0.60
2023-03-26T04:07:51.002Z,0.13
2023-03-26T04:10:18.199Z,0.40
2023-03-26T04:12:45.785Z,0.67
2023-03-26T04:15:12.900Z,0.10
2023-03-26T04:17:42.905Z,0.20
2023-03-26T04:20:13.155Z,0.27
2023-03-26T04:22:41.245Z,0.27
2023-03-26T04:25:10.296Z,0.20
2023-03-26T04:27:38.175Z,0.23
2023-03-26T04:30:08.657Z,0.10
2023-03-26T04:32:37.889Z,0.40
2023-03-26T04:35:06.863Z,0.73
2023-03-26T04:37:41.712Z,0.60
2023-03-26T04:40:15.583Z,0.20
2023-03-26T04:42:46.416Z,0.17
2023-03-26T04:45:17.681Z,0.50
2023-03-26T04:47:48.668Z,1.20
2023-03-26T04:50:16.497Z,0.57
2023-03-26T04:52:45.331Z,0.00
2023-03-26T04:55:31.487Z,0.10
2023-03-26T04:58:00.270Z,0.13
2023-03-26T05:00:28.539Z,0.30
2023-03-26T05:02:57.940Z,0.37
2023-03-26T05:05:27.784Z,0.43
2023-03-26T05:07:56.662Z,0.20
2023-03-26T05:10:24.325Z,0.10
2023-03-26T05:12:51.751Z,0.23
2023-03-26T05:15:20.128Z,0.30
2023-03-26T05:17:48.552Z,0.03
2023-03-26T05:20:27.315Z,0.50
2023-03-26T05:22:54.654Z,0.40
2023-03-26T05:25:22.794Z,1.47
2023-03-26T05:27:49.990Z,0.30
2023-03-26T05:30:21.407Z,0.70
2023-03-26T05:32:49.673Z,0.70
2023-03-26T05:35:17.688Z,1.10
2023-03-26T05:37:47.354Z,1.67
2023-03-26T05:40:17.472Z,1.10
2023-03-26T05:42:45.769Z,0.93
2023-03-26T05:45:16.397Z,0.90
2023-03-26T05:47:43.950Z,0.17
2023-03-26T05:50:12.084Z,1.00
2023-03-26T05:52:40.187Z,0.47
2023-03-26T05:55:08.500Z,0.63
2023-03-26T05:57:35.964Z,0.30
2023-03-26T06:00:11.242Z,0.63
2023-03-26T06:02:39.167Z,1.47
2023-03-26T06:07:35.270Z,0.47
2023-03-26T06:10:02.882Z,0.30
2023-03-26T06:12:30.013Z,0.40
2023-03-26T06:14:57.830Z,0.80
2023-03-26T06:17:24.958Z,0.50
2023-03-26T06:19:52.183Z,0.23
2023-03-26T06:22:20.519Z,0.50
2023-03-26T06:24:47.584Z,0.83
2023-03-26T06:27:15.082Z,0.50
2023-03-26T06:29:42.247Z,0.50
2023-03-26T06:32:19.179Z,0.57
2023-03-26T06:34:47.621Z,0.20
2023-03-26T06:37:14.853Z,0.50
2023-03-26T06:39:42.096Z,0.30
2023-03-26T06:42:09.325Z,0.63
2023-03-26T06:44:36.674Z,0.43
2023-03-26T06:47:03.940Z,0.60
2023-03-26T06:49:31.187Z,0.47
2023-03-26T06:51:58.751Z,0.57
2023-03-26T06:54:27.679Z,0.40
2023-03-26T06:56:58.836Z,0.50
2023-03-26T06:59:26.655Z,0.43
2023-03-26T07:01:54.091Z,0.37
2023-03-26T07:04:21.287Z,0.37
2023-03-26T07:06:48.617Z,0.70
2023-03-26T07:09:19.777Z,0.37
2023-03-26T07:11:54.565Z,0.50
2023-03-26T07:14:21.749Z,0.50
2023-03-26T07:16:51.304Z,0.43
2023-03-26T07:19:18.585Z,0.60
2023-03-26T07:21:47.186Z,0.60
2023-03-26T07:24:15.038Z,0.30
2023-03-26T07:27:29.723Z,0.10
2023-03-26T07:30:11.758Z,0.10
2023-03-26T07:32:59.073Z,0.20
2023-03-26T07:35:55.615Z,0.30
2023-03-26T07:38:47.312Z,0.60
2023-03-26T07:41:43.758Z,1.33
2023-03-26T07:44:22.293Z,0.27
2023-03-26T07:46:53.353Z,0.30
2023-03-26T07:49:21.118Z,0.30
2023-03-26T07:51:49.057Z,0.53
2023-03-26T07:54:16.800Z,0.37
2023-03-26T07:56:59.080Z,0.43
2023-03-26T07:59:50.490Z,0.23
2023-03-26T08:02:46.089Z,0.33
2023-03-26T08:05:57.099Z,0.50
2023-03-26T08:08:46.229Z,0.30
2023-03-26T08:11:30.995Z,0.53
2023-03-26T08:14:32.690Z,0.40
2023-03-26T08:17:13.476Z,0.20
2023-03-26T08:20:26.385Z,0.30
2023-03-26T08:23:09.571Z,0.40
2023-03-26T08:25:53.414Z,0.10
2023-03-26T08:28:59.531Z,0.40
2023-03-26T08:31:35.904Z,0.40
2023-03-26T08:34:03.703Z,0.57
2023-03-26T08:36:31.466Z,0.30
2023-03-26T08:39:03.848Z,0.33
2023-03-26T08:41:59.430Z,0.30
2023-03-26T08:45:11.514Z,0.50
2023-03-26T08:48:25.169Z,0.30
2023-03-26T08:51:36.158Z,0.33
2023-03-26T08:54:36.236Z,0.30
2023-03-26T08:57:26.744Z,0.37
2023-03-26T09:00:28.452Z,0.60
2023-03-26T09:03:28.239Z,0.20
2023-03-26T09:06:31.387Z,0.40
2023-03-26T09:09:27.390Z,0.30
2023-03-26T09:12:32.897Z,0.63
2023-03-26T09:15:51.516Z,0.40
2023-03-26T09:18:43.132Z,0.60
2023-03-26T09:21:40.602Z,0.70
2023-03-26T09:24:28.236Z,0.30
2023-03-26T09:27:27.334Z,0.50
2023-03-26T09:30:41.288Z,0.17
2023-03-26T09:33:44.997Z,0.30
2023-03-26T09:36:57.388Z,0.50
2023-03-26T09:40:01.664Z,0.43
2023-03-26T09:42:45.983Z,0.40
2023-03-26T09:45:52.866Z,0.77
2023-03-26T09:48:54.199Z,0.30
2023-03-26T09:52:03.328Z,0.40
2023-03-26T09:55:09.159Z,1.00
2023-03-26T09:58:29.748Z,0.67
2023-03-26T10:01:13.109Z,0.37
2023-03-26T10:04:22.727Z,0.50
2023-03-26T10:07:04.501Z,0.47
2023-03-26T10:09:57.179Z,0.30
2023-03-26T10:13:02.200Z,0.43
2023-03-26T10:15:54.459Z,0.40
2023-03-26T10:19:24.523Z,0.70
2023-03-26T10:22:10.707Z,0.80
2023-03-26T10:25:05.287Z,0.53
2023-03-26T10:28:26.916Z,0.40
2023-03-26T10:31:15.714Z,1.03
2023-03-26T10:34:07.540Z,0.40
2023-03-26T10:36:37.514Z,2.50
2023-03-26T10:39:43.660Z,1.33
2023-03-26T10:42:23.461Z,1.17
2023-03-26T10:45:24.780Z,0.40
2023-03-26T10:48:27.158Z,0.30
2023-03-26T10:51:06.891Z,0.20
2023-03-26T10:53:51.952Z,0.70
2023-03-26T10:56:38.148Z,0.50
2023-03-26T10:59:13.398Z,0.60
2023-03-26T11:01:46.339Z,0.33
2023-03-26T11:04:31.252Z,0.40
2023-03-26T11:07:13.282Z,0.10
2023-03-26T11:10:26.689Z,0.47
2023-03-26T11:13:05.933Z,0.47
2023-03-26T11:16:31.425Z,0.30
2023-03-26T11:19:11.896Z,0.20
2023-03-26T11:22:17.851Z,0.37
2023-03-26T11:25:29.618Z,0.50
2023-03-26T11:28:17.916Z,0.30
2023-03-26T11:30:56.512Z,0.50
2023-03-26T11:33:46.462Z,0.20
2023-03-26T11:36:36.070Z,0.27
2023-03-26T11:39:34.539Z,0.10
2023-03-26T11:42:13.793Z,0.40
2023-03-26T11:45:02.653Z,0.50
2023-03-26T11:47:40.721Z,0.90
2023-03-26T11:50:16.094Z,1.10
2023-03-26T11:52:45.959Z,0.43
2023-03-26T11:55:14.740Z,0.13
2023-03-26T11:57:53.784Z,0.20
2023-03-26T12:00:27.673Z,0.60
2023-03-26T12:03:00.477Z,0.80
2023-03-26T12:05:33.697Z,0.40
2023-03-26T12:08:20.292Z,0.23
2023-03-26T12:11:11.018Z,0.30
2023-03-26T12:13:52.054Z,0.30
2023-03-26T12:16:21.879Z,0.40
2023-03-26T12:19:20.150Z,0.50
2023-03-26T12:21:51.890Z,0.43
2023-03-26T12:24:37.267Z,0.50
2023-03-26T12:27:28.471Z,0.23
2023-03-26T12:30:11.242Z,0.30
2023-03-26T12:32:46.806Z,0.20
2023-03-26T12:35:23.010Z,0.93
2023-03-26T12:37:50.480Z,0.20
2023-03-26T12:40:36.634Z,0.13
2023-03-26T12:44:48.225Z,0.40
2023-03-26T12:47:57.447Z,0.30
2023-03-26T12:49:22.502Z,0.20
2023-03-26T12:52:15.103Z,0.60
2023-03-26T12:54:50.886Z,0.43
2023-03-26T12:57:25.373Z,0.33
2023-03-26T13:00:33.640Z,0.40
2023-03-26T13:03:41.978Z,0.27
2023-03-26T13:06:59.538Z,0.10
2023-03-26T13:09:33.343Z,0.37
2023-03-26T13:12:31.025Z,0.30
2023-03-26T13:15:25.146Z,0.10
2023-03-26T13:18:24.591Z,0.10
2023-03-26T13:21:09.468Z,0.40
2023-03-26T13:24:21.468Z,0.47
2023-03-26T13:27:04.972Z,0.20
2023-03-26T13:29:59.712Z,0.50
2023-03-26T13:32:59.054Z,0.47
2023-03-26T13:35:44.476Z,0.47
2023-03-26T13:38:33.055Z,0.20
2023-03-26T13:41:18.288Z,0.23
2023-03-26T13:43:54.732Z,0.20
2023-03-26T13:46:29.421Z,0.13
2023-03-26T13:49:37.478Z,0.20
2023-03-26T13:52:19.876Z,0.60
2023-03-26T13:55:15.200Z,0.10
2023-03-26T13:57:48.850Z,0.23
2023-03-26T14:00:27.703Z,0.40
2023-03-26T14:03:12.022Z,0.27
2023-03-26T14:05:48.430Z,0.30
2023-03-26T14:08:27.769Z,0.30
2023-03-26T14:11:07.840Z,0.10
2023-03-26T14:13:51.846Z,0.47
2023-03-26T14:16:46.352Z,0.10
2023-03-26T14:20:07.362Z,0.30
2023-03-26T14:22:59.279Z,0.30
2023-03-26T14:25:32.950Z,0.50
2023-03-26T14:28:52.658Z,0.10
2023-03-26T14:32:30.063Z,0.13
2023-03-26T14:35:26.349Z,0.43
2023-03-26T14:38:24.094Z,0.50
2023-03-26T14:41:29.790Z,0.30
2023-03-26T14:44:26.225Z,0.37
2023-03-26T14:47:20.630Z,0.10
2023-03-26T14:50:26.828Z,0.30
2023-03-26T14:53:01.505Z,0.37
2023-03-26T14:56:07.251Z,0.20
2023-03-26T14:59:26.342Z,0.23
2023-03-26T15:02:31.069Z,0.60
2023-03-26T15:05:16.832Z,0.10
2023-03-26T15:09:00.231Z,0.37
2023-03-26T15:12:12.642Z,0.20
2023-03-26T15:15:21.014Z,0.17
2023-03-26T15:18:11.881Z,0.60
2023-03-26T15:21:16.465Z,0.20
2023-03-26T15:24:21.597Z,0.50
2023-03-26T15:27:52.224Z,0.27
2023-03-26T15:30:51.355Z,0.90
2023-03-26T15:33:25.255Z,0.47
2023-03-26T15:36:42.014Z,0.40
2023-03-26T15:40:11.256Z,0.13
2023-03-26T15:43:03.340Z,0.20
2023-03-26T15:45:36.849Z,0.30
2023-03-26T15:48:27.887Z,0.50
2023-03-26T15:51:26.177Z,0.60
2023-03-26T15:54:23.190Z,0.83
2023-03-26T15:57:19.544Z,0.83
2023-03-26T15:59:52.637Z,0.40
2023-03-26T16:02:28.968Z,0.47
2023-03-26T16:05:21.487Z,0.30
2023-03-26T16:08:20.712Z,0.60
2023-03-26T16:10:58.193Z,0.47
2023-03-26T16:13:39.694Z,0.80
2023-03-26T16:16:16.603Z,3.53
2023-03-26T16:19:19.555Z,3.90
2023-03-26T16:22:11.987Z,0.80
2023-03-26T16:24:46.615Z,0.40
2023-03-26T16:27:13.745Z,1.10
2023-03-26T16:30:30.582Z,0.60
2023-03-26T16:33:14.110Z,0.37
2023-03-26T16:36:26.086Z,1.07
2023-03-26T16:39:08.888Z,0.97
2023-03-26T16:41:50.294Z,1.17
2023-03-26T16:45:12.529Z,1.00
2023-03-26T16:47:56.386Z,0.80
2023-03-26T16:51:18.631Z,1.60
2023-03-26T16:54:29.417Z,0.50
2023-03-26T16:57:26.398Z,0.80
2023-03-26T17:00:16.599Z,0.67
2023-03-26T17:03:38.212Z,0.60
2023-03-26T17:06:26.629Z,1.07
2023-03-26T17:09:27.392Z,0.57
2023-03-26T17:12:16.880Z,0.20
2023-03-26T17:15:21.456Z,0.80
2023-03-26T17:18:06.079Z,0.80
2023-03-26T17:21:05.228Z,0.80
2023-03-26T17:24:00.562Z,1.17
2023-03-26T17:26:54.040Z,1.00
2023-03-26T17:29:30.015Z,0.90
2023-03-26T17:32:11.737Z,1.10
2023-03-26T17:34:38.765Z,1.30
2023-03-26T17:37:17.049Z,1.13
2023-03-26T17:39:45.538Z,0.97
2023-03-26T17:42:35.553Z,0.70
2023-03-26T17:45:30.301Z,1.03
2023-03-26T17:48:08.451Z,0.53
2023-03-26T17:50:48.775Z,0.80
2023-03-26T17:53:27.396Z,1.27
2023-03-26T17:56:03.334Z,0.80
2023-03-26T17:58:36.534Z,1.03
2023-03-26T18:01:13.436Z,1.00
2023-03-26T18:03:53.004Z,1.50
2023-03-26T18:06:53.962Z,1.10
2023-03-26T18:09:49.013Z,0.97
2023-03-26T18:12:34.364Z,1.50
2023-03-26T18:15:38.334Z,1.33
2023-03-26T18:18:49.368Z,1.70
2023-03-26T18:21:36.028Z,1.43
2023-03-26T18:24:07.801Z,2.23
2023-03-26T18:26:41.803Z,2.53
2023-03-26T18:29:31.218Z,2.77
2023-03-26T18:32:02.706Z,4.17
2023-03-26T18:34:34.123Z,5.40
2023-03-26T18:37:29.974Z,2.40
2023-03-26T18:40:11.852Z,1.87
2023-03-26T18:42:43.364Z,2.60
2023-03-26T18:45:26.928Z,1.83
2023-03-26T18:48:04.962Z,1.57
2023-03-26T18:50:40.885Z,1.33
2023-03-26T18:53:20.971Z,1.07
2023-03-26T18:55:53.374Z,2.13
2023-03-26T18:58:36.881Z,2.70
2023-03-26T19:01:19.963Z,2.17
2023-03-26T19:03:54.328Z,1.37
2023-03-26T19:06:31.308Z,2.13
2023-03-26T19:09:03.425Z,3.00
2023-03-26T19:11:49.662Z,2.30
2023-03-26T19:14:35.748Z,1.60
2023-03-26T19:17:09.142Z,2.37
2023-03-26T19:19:39.372Z,2.83
2023-03-26T19:22:09.369Z,2.60
2023-03-26T19:24:40.718Z,2.27
2023-03-26T19:27:16.859Z,2.20
2023-03-26T19:29:44.982Z,1.53
2023-03-26T19:32:42.968Z,2.87
2023-03-26T19:35:27.587Z,1.73
2023-03-26T19:37:54.957Z,2.33
2023-03-26T19:40:30.470Z,2.00
2023-03-26T19:43:03.769Z,1.77
2023-03-26T19:45:36.465Z,1.23
2023-03-26T19:48:45.482Z,1.57
2023-03-26T19:51:33.331Z,0.97
2023-03-26T19:54:06.240Z,1.27
2023-03-26T19:56:33.908Z,1.40
2023-03-26T19:59:02.615Z,1.00
2023-03-26T20:01:32.196Z,1.00
2023-03-26T20:04:06.946Z,1.73
2023-03-26T20:06:43.199Z,1.43
2023-03-26T20:09:13.472Z,1.80
2023-03-26T20:11:41.639Z,1.17
2023-03-26T20:14:21.610Z,1.83
2023-03-26T20:16:48.933Z,1.43
2023-03-26T20:19:16.936Z,1.30
2023-03-26T20:21:45.200Z,1.30
2023-03-26T20:24:16.661Z,1.83
2023-03-26T20:26:48.818Z,1.30
2023-03-26T20:29:19.342Z,1.43
2023-03-26T20:31:48.685Z,1.60
2023-03-26T20:34:23.685Z,1.10
2023-03-26T20:36:56.138Z,2.20
2023-03-26T20:39:25.303Z,1.43
2023-03-26T20:41:58.418Z,1.50
2023-03-26T20:44:28.880Z,1.90
2023-03-26T20:46:59.420Z,1.77
2023-03-26T20:49:31.550Z,1.30
2023-03-26T20:52:06.414Z,1.80
2023-03-26T20:54:39.327Z,1.53
2023-03-26T20:57:06.455Z,1.40
2023-03-26T20:59:34.730Z,2.20
2023-03-26T21:02:03.088Z,1.90
2023-03-26T21:04:32.677Z,1.63
2023-03-26T21:07:11.012Z,1.43
2023-03-26T21:09:39.518Z,2.57
2023-03-26T21:12:17.260Z,1.60
2023-03-26T21:14:46.786Z,2.37
2023-03-26T21:17:24.492Z,1.43
2023-03-26T21:19:52.266Z,1.57
2023-03-26T21:23:08.464Z,2.07
2023-03-26T21:25:41.682Z,1.70
2023-03-26T21:28:47.787Z,1.90
2023-03-26T21:31:22.641Z,1.73
2023-03-26T21:33:51.996Z,2.23
2023-03-26T21:36:20.311Z,2.23
2023-03-26T21:38:48.392Z,2.00
2023-03-26T21:42:04.773Z,2.67
2023-03-26T21:44:36.144Z,2.00
2023-03-26T21:47:03.602Z,2.90
2023-03-26T21:49:31.219Z,1.47
2023-03-26T21:51:58.584Z,1.47
2023-03-26T21:54:32.245Z,2.10
2023-03-26T21:57:18.209Z,2.03
2023-03-26T21:59:57.411Z,1.47
2023-03-26T22:02:52.489Z,2.10
2023-03-26T22:05:37.728Z,2.13
2023-03-26T22:08:08.480Z,2.40
2023-03-26T22:10:43.449Z,1.87
2023-03-26T22:13:10.627Z,1.63
2023-03-26T22:15:37.956Z,1.77
2023-03-26T22:18:07.513Z,1.30
2023-03-26T22:20:34.916Z,2.27
2023-03-26T22:23:03.356Z,2.57
2023-03-26T22:25:31.222Z,0.80
2023-03-26T22:28:05.183Z,1.90
2023-03-26T22:30:35.782Z,1.70
2023-03-26T22:33:03.279Z,1.47
2023-03-26T22:35:31.287Z,2.20
2023-03-26T22:38:00.975Z,1.63
2023-03-26T22:40:28.876Z,1.20
2023-03-26T22:42:56.206Z,1.67
2023-03-26T22:45:23.713Z,1.70
2023-03-26T22:47:51.165Z,2.87
2023-03-26T22:50:30.524Z,1.53
2023-03-26T22:52:57.676Z,1.83
2023-03-26T22:55:28.198Z,1.30
2023-03-26T22:57:56.409Z,1.53
2023-03-26T23:00:23.920Z,1.07
2023-03-26T23:02:51.324Z,1.20
2023-03-26T23:05:18.815Z,1.40
2023-03-26T23:07:46.791Z,2.37
2023-03-26T23:10:14.493Z,1.70
2023-03-26T23:12:41.830Z,1.80
2023-03-26T23:15:09.961Z,2.00
2023-03-26T23:17:38.376Z,1.20
2023-03-26T23:20:17.647Z,0.90
2023-03-26T23:22:45.181Z,0.90
2023-03-26T23:25:12.991Z,1.47
2023-03-26T23:27:43.907Z,1.90
2023-03-26T23:30:15.143Z,1.73
2023-03-26T23:32:42.382Z,1.13
2023-03-26T23:35:10.051Z,2.13
2023-03-26T23:37:38.932Z,0.83
2023-03-26T23:40:10.059Z,2.33
2023-03-26T23:42:39.093Z,1.13
2023-03-26T23:45:08.658Z,1.90
2023-03-26T23:47:36.099Z,1.17
2023-03-26T23:50:05.188Z,1.20
2023-03-26T23:52:32.334Z,1.00
2023-03-26T23:55:00.111Z,1.17
2023-03-26T23:57:27.467Z,1.10
2023-03-26T23:59:57.265Z,1.50
